Time,TemperatureF,DewpointF,PressureIn,WindDirection,WindDirectionDegrees,WindSpeedMPH,WindSpeedGustMPH,Humidity,HourlyPrecipIn,Conditions,Clouds,dailyrainin,SoftwareType,DateUTC
2013-01-07 00:01:00,38.5,33.5,29.91,North,349,7.0,12.0,82,0.00,RA,RA,0.00,WeatherDisplay:10.37,2013-01-07 05:01:00,
2013-01-07 00:16:00,38.0,33.3,29.91,North,1,0.0,10.0,83,0.00,CLR,CLR,0.00,WeatherDisplay:10.37,2013-01-07 05:16:00,
2013-01-07 00:31:00,37.6,33.2,29.91,North,351,3.0,6.0,84,0.00,CLR,CLR,0.00,WeatherDisplay:10.37,2013-01-07 05:31:00,
2013-01-07 00:46:00,37.3,32.9,29.91,North,349,5.0,8.0,84,0.00,CLR,CLR,0.00,WeatherDisplay:10.37,2013-01-07 05:46:00,
2013-01-07 01:01:00,37.3,32.9,29.91,North,350,5.0,8.0,84,0.00,CLR,CLR,0.00,WeatherDisplay:10.37,2013-01-07 06:01:00,
2013-01-07 01:16:00,37.5,33.4,29.91,NNE,20,0.0,5.0,85,0.00,CLR,CLR,0.00,WeatherDisplay:10.37,2013-01-07 06:16:00,
2013-01-07 01:31:00,37.4,33.0,29.91,NNE,14,3.0,7.0,84,0.00,CLR,CLR,0.00,WeatherDisplay:10.37,2013-01-07 06:31:00,
2013-01-07 01:46:00,36.9,32.5,29.91,NNE,24,0.0,6.0,84,0.00,CLR,CLR,0.00,WeatherDisplay:10.37,2013-01-07 06:46:00,
2013-01-07 02:01:00,36.2,31.8,29.91,North,355,0.0,6.0,84,0.00,CLR,CLR,0.00,WeatherDisplay:10.37,2013-01-07 07:01:00,
2013-01-07 02:16:00,35.2,31.4,29.91,NNW,345,0.0,1.0,86,0.00,CLR,CLR,0.00,WeatherDisplay:10.37,2013-01-07 07:16:00,
2013-01-07 02:31:00,34.5,31.3,29.91,NNW,345,1.0,3.0,88,0.00,CLR,CLR,0.00,WeatherDisplay:10.37,2013-01-07 07:31:00,
2013-01-07 02:46:00,34.4,31.2,29.91,NNW,345,0.0,2.0,88,0.00,CLR,CLR,0.00,WeatherDisplay:10.37,2013-01-07 07:46:00,
2013-01-07 03:01:00,33.3,30.7,29.91,NNW,346,5.0,6.0,90,0.00,CLR,CLR,0.00,WeatherDisplay:10.37,2013-01-07 08:01:00,
2013-01-07 03:16:00,32.6,30.3,29.91,North,354,6.0,8.0,91,0.00,CLR,CLR,0.00,WeatherDisplay:10.37,2013-01-07 08:16:00,
2013-01-07 03:31:00,32.5,30.2,29.91,NE,39,1.0,6.0,91,0.00,CLR,CLR,0.00,WeatherDisplay:10.37,2013-01-07 08:31:00,
2013-01-07 03:46:00,32.1,30.0,29.91,NNE,29,0.0,3.0,92,0.00,CLR,CLR,0.00,WeatherDisplay:10.37,2013-01-07 08:46:00,
2013-01-07 04:01:00,31.8,29.7,29.91,NNE,29,0.0,3.0,92,0.00,CLR,CLR,0.00,WeatherDisplay:10.37,2013-01-07 09:01:00,
2013-01-07 04:16:00,31.5,29.5,29.91,NNE,25,1.0,5.0,92,0.00,CLR,CLR,0.00,WeatherDisplay:10.37,2013-01-07 09:16:00,
2013-01-07 04:31:00,31.1,29.0,29.91,North,7,0.0,5.0,92,0.00,CLR,CLR,0.00,WeatherDisplay:10.37,2013-01-07 09:31:00,
2013-01-07 04:46:00,30.4,28.6,29.91,North,7,0.0,2.0,93,0.00,CLR,CLR,0.00,WeatherDisplay:10.37,2013-01-07 09:46:00,
2013-01-07 05:01:00,30.2,28.4,29.91,North,7,0.0,0.0,93,0.00,CLR,CLR,0.00,WeatherDisplay:10.37,2013-01-07 10:01:00,
2013-01-07 05:16:00,29.8,28.5,29.91,North,7,0.0,0.0,95,0.00,CLR,CLR,0.00,WeatherDisplay:10.37,2013-01-07 10:16:00,
2013-01-07 05:31:00,29.7,28.7,29.91,North,7,0.0,0.0,96,0.00,CLR,CLR,0.00,WeatherDisplay:10.37,2013-01-07 10:31:00,
2013-01-07 05:46:00,29.8,28.3,29.91,North,7,0.0,0.0,94,0.00,CLR,CLR,0.00,WeatherDisplay:10.37,2013-01-07 10:46:00,
2013-01-07 06:01:00,30.0,28.7,29.91,North,7,0.0,2.0,95,0.00,CLR,CLR,0.00,WeatherDisplay:10.37,2013-01-07 11:01:00,
2013-01-07 06:16:00,29.9,28.6,29.91,North,10,0.0,3.0,95,0.00,BKN,BKN,0.00,WeatherDisplay:10.37,2013-01-07 11:16:00,
2013-01-07 06:31:00,29.7,28.7,29.91,NNE,12,0.0,0.0,96,0.00,BKN,BKN,0.00,WeatherDisplay:10.37,2013-01-07 11:31:00,
2013-01-07 06:46:00,29.3,28.3,29.91,NNE,12,0.0,2.0,96,0.00,BKN,BKN,0.00,WeatherDisplay:10.37,2013-01-07 11:46:00,
2013-01-07 07:01:00,28.9,27.9,29.91,NNE,12,0.0,2.0,96,0.00,BKN,BKN,0.00,WeatherDisplay:10.37,2013-01-07 12:01:00,
2013-01-07 07:16:00,28.7,27.7,29.91,NNE,12,1.0,2.0,96,0.00,SCT,SCT,0.00,WeatherDisplay:10.37,2013-01-07 12:16:00,
2013-01-07 07:31:00,28.2,27.3,29.91,NNE,12,0.0,2.0,96,0.00,SCT,SCT,0.00,WeatherDisplay:10.37,2013-01-07 12:31:00,
2013-01-07 07:46:00,27.9,26.9,29.91,NNE,12,0.0,1.0,96,0.00,SCT,SCT,0.00,WeatherDisplay:10.37,2013-01-07 12:46:00,
2013-01-07 08:01:00,28.2,27.7,29.91,North,1,1.0,3.0,98,0.00,SCT,SCT,0.00,WeatherDisplay:10.37,2013-01-07 13:01:00,
2013-01-07 08:16:00,28.2,26.9,29.91,NNE,23,0.0,4.0,95,0.00,CLR,CLR,0.00,WeatherDisplay:10.37,2013-01-07 13:16:00,
2013-01-07 08:31:00,28.3,27.3,29.91,NNE,23,0.0,2.0,96,0.00,CLR,CLR,0.00,WeatherDisplay:10.37,2013-01-07 13:31:00,
2013-01-07 08:46:00,28.8,28.1,29.91,NNE,23,0.0,2.0,97,0.00,CLR,CLR,0.00,WeatherDisplay:10.37,2013-01-07 13:46:00,
2013-01-07 09:01:00,29.8,29.1,29.91,NNE,23,0.0,3.0,97,0.00,CLR,CLR,0.00,WeatherDisplay:10.37,2013-01-07 14:01:00,
2013-01-07 09:16:00,30.7,29.7,29.91,NNE,15,1.0,5.0,96,0.00,CLR,CLR,0.00,WeatherDisplay:10.37,2013-01-07 14:16:00,
2013-01-07 09:31:00,31.7,30.7,29.91,NE,50,2.0,7.0,96,0.00,CLR,CLR,0.00,WeatherDisplay:10.37,2013-01-07 14:31:00,
2013-01-07 09:46:00,32.7,31.5,29.91,ENE,57,3.0,6.0,95,0.00,CLR,CLR,0.00,WeatherDisplay:10.37,2013-01-07 14:46:00,
2013-01-07 10:01:00,34.0,31.9,29.91,NE,41,3.0,8.0,92,0.00,CLR,CLR,0.00,WeatherDisplay:10.37,2013-01-07 15:01:00,
2013-01-07 10:16:00,35.0,32.9,29.91,NE,48,2.0,7.0,92,0.00,CLR,CLR,0.00,WeatherDisplay:10.37,2013-01-07 15:16:00,
2013-01-07 10:31:00,36.0,32.8,29.91,NNE,20,2.0,7.0,88,0.00,CLR,CLR,0.00,WeatherDisplay:10.37,2013-01-07 15:31:00,
2013-01-07 10:46:00,37.1,33.6,29.91,NE,35,5.0,9.0,87,0.00,CLR,CLR,0.00,WeatherDisplay:10.37,2013-01-07 15:46:00,
2013-01-07 11:01:00,38.4,35.2,29.91,ENE,69,3.0,12.0,88,0.00,CLR,CLR,0.00,WeatherDisplay:10.37,2013-01-07 16:01:00,
2013-01-07 11:16:00,39.7,34.7,29.91,NE,41,3.0,8.0,82,0.00,CLR,CLR,0.00,WeatherDisplay:10.37,2013-01-07 16:16:00,
2013-01-07 11:31:00,41.2,36.1,29.91,ENE,71,2.0,10.0,82,0.00,CLR,CLR,0.00,WeatherDisplay:10.37,2013-01-07 16:31:00,
2013-01-07 11:46:00,41.8,35.4,29.91,NNE,29,3.0,9.0,78,0.00,CLR,CLR,0.00,WeatherDisplay:10.37,2013-01-07 16:46:00,
2013-01-07 12:01:00,43.5,37.8,29.91,East,84,1.0,8.0,80,0.00,CLR,CLR,0.00,WeatherDisplay:10.37,2013-01-07 17:01:00,
2013-01-07 12:16:00,44.0,38.3,29.91,NNE,30,2.0,7.0,80,0.00,CLR,CLR,0.00,WeatherDisplay:10.37,2013-01-07 17:16:00,
2013-01-07 23:01:00,35.7,32.2,29.91,ESE,109,0.0,0.0,87,0.00,CLR,CLR,0.00,WeatherDisplay:10.37,2013-01-08 04:01:00,
2013-01-07 23:16:00,35.3,31.8,29.91,ESE,109,0.0,0.0,87,0.00,CLR,CLR,0.00,WeatherDisplay:10.37,2013-01-08 04:16:00,
2013-01-07 23:31:00,35.0,31.5,29.91,ESE,109,0.0,0.0,87,0.00,CLR,CLR,0.00,WeatherDisplay:10.37,2013-01-08 04:31:00,
2013-01-07 23:46:00,34.5,31.0,29.91,ESE,109,0.0,1.0,87,0.00,CLR,CLR,0.00,WeatherDisplay:10.37,2013-01-08 04:46:00,